createdAt,value
2022-10-19T00:02:18.358Z,10.37
2022-10-19T00:04:45.032Z,10.36
2022-10-19T00:07:11.518Z,10.34
2022-10-19T00:09:37.994Z,10.24
2022-10-19T00:12:04.714Z,10.25
2022-10-19T00:14:31.299Z,10.20
2022-10-19T00:16:58.143Z,10.17
2022-10-19T00:19:26.627Z,10.06
2022-10-19T00:21:54.286Z,9.87
2022-10-19T00:24:21.328Z,9.76
2022-10-19T00:26:48.153Z,9.69
2022-10-19T00:29:15.222Z,9.74
2022-10-19T00:31:42.083Z,9.80
2022-10-19T00:34:09.154Z,9.82
2022-10-19T00:36:41.768Z,9.81
2022-10-19T00:39:13.243Z,9.79
2022-10-19T00:41:40.014Z,9.81
2022-10-19T00:44:28.179Z,9.78
2022-10-19T00:46:59.217Z,9.67
2022-10-19T00:49:33.216Z,9.61
2022-10-19T00:52:06.377Z,9.58
2022-10-19T00:54:36.383Z,9.56
2022-10-19T00:57:05.026Z,9.59
2022-10-19T00:59:32.712Z,9.66
2022-10-19T01:02:03.090Z,9.66
2022-10-19T01:04:30.783Z,9.62
2022-10-19T01:06:58.489Z,9.60
2022-10-19T01:09:27.801Z,9.59
2022-10-19T01:11:57.168Z,9.61
2022-10-19T01:14:46.811Z,9.50
2022-10-19T01:17:37.928Z,9.43
2022-10-19T01:20:28.627Z,9.33
2022-10-19T01:23:16.823Z,9.30
2022-10-19T01:26:20.239Z,9.29
2022-10-19T01:29:06.372Z,9.26
2022-10-19T01:31:35.829Z,9.25
2022-10-19T01:34:53.477Z,9.23
2022-10-19T01:37:34.349Z,9.18
2022-10-19T01:40:27.700Z,9.16
2022-10-19T01:43:09.005Z,9.15
2022-10-19T01:46:02.125Z,9.15
2022-10-19T01:48:32.376Z,9.17
2022-10-19T01:51:06.690Z,9.11
2022-10-19T01:53:40.251Z,9.07
2022-10-19T01:56:08.530Z,9.06
2022-10-19T01:58:42.835Z,8.94
2022-10-19T02:03:55.226Z,8.81
2022-10-19T02:06:22.213Z,8.81
2022-10-19T02:08:56.086Z,8.83
2022-10-19T02:11:23.349Z,8.82
2022-10-19T02:14:09.395Z,8.68
2022-10-19T02:16:44.750Z,8.70
2022-10-19T02:19:17.268Z,8.74
2022-10-19T02:21:43.759Z,8.75
2022-10-19T02:24:10.148Z,8.75
2022-10-19T02:26:37.610Z,8.80
2022-10-19T02:29:04.192Z,8.82
2022-10-19T02:31:30.654Z,8.78
2022-10-19T02:33:57.359Z,8.70
2022-10-19T02:36:29.299Z,8.66
2022-10-19T02:38:55.786Z,8.65
2022-10-19T02:41:31.477Z,8.61
2022-10-19T02:44:03.367Z,8.62
2022-10-19T02:46:42.256Z,8.65
2022-10-19T02:49:10.064Z,8.63
2022-10-19T02:51:43.989Z,8.58
2022-10-19T02:54:10.385Z,8.51
2022-10-19T02:56:36.775Z,8.55
2022-10-19T02:59:03.548Z,8.56
2022-10-19T03:01:30.173Z,8.57
2022-10-19T03:03:56.592Z,8.51
2022-10-19T03:06:22.982Z,8.32
2022-10-19T03:08:52.421Z,8.21
2022-10-19T03:11:18.866Z,8.22
2022-10-19T03:13:45.308Z,8.21
2022-10-19T03:16:13.280Z,8.07
2022-10-19T03:18:40.283Z,8.06
2022-10-19T03:21:15.954Z,8.07
2022-10-19T03:23:42.419Z,8.11
2022-10-19T03:26:14.765Z,8.15
2022-10-19T03:28:41.550Z,8.15
2022-10-19T03:31:08.396Z,8.03
2022-10-19T03:33:34.903Z,7.97
2022-10-19T03:36:20.971Z,7.99
2022-10-19T03:38:50.108Z,8.03
2022-10-19T03:41:16.567Z,8.08
2022-10-19T03:43:43.045Z,8.09
2022-10-19T03:46:09.518Z,8.09
2022-10-19T03:48:36.162Z,8.06
2022-10-19T03:51:08.294Z,8.04
2022-10-19T03:53:44.205Z,7.92
2022-10-19T03:56:19.041Z,7.83
2022-10-19T03:58:49.742Z,7.76
2022-10-19T04:01:17.527Z,7.64
2022-10-19T04:03:44.606Z,7.63
2022-10-19T04:06:21.153Z,7.65
2022-10-19T04:08:49.821Z,7.69
2022-10-19T04:11:18.321Z,7.75
2022-10-19T04:13:44.711Z,7.80
2022-10-19T04:16:13.932Z,7.84
2022-10-19T04:18:40.397Z,7.83
2022-10-19T04:21:30.933Z,7.67
2022-10-19T04:24:03.097Z,7.65
2022-10-19T04:26:49.793Z,7.65
2022-10-19T04:29:18.902Z,7.62
2022-10-19T04:32:05.637Z,7.67
2022-10-19T04:34:33.330Z,7.69
2022-10-19T04:37:04.669Z,7.73
2022-10-19T04:39:31.111Z,7.76
2022-10-19T04:41:57.573Z,7.72
2022-10-19T04:46:50.333Z,7.74
2022-10-19T04:49:19.494Z,7.74
2022-10-19T04:51:46.797Z,7.77
2022-10-19T04:54:13.230Z,7.75
2022-10-19T04:56:40.017Z,7.72
2022-10-19T04:59:10.530Z,7.65
2022-10-19T05:01:37.162Z,7.59
2022-10-19T05:04:03.951Z,7.46
2022-10-19T05:06:31.491Z,7.38
2022-10-19T05:08:58.642Z,7.39
2022-10-19T05:11:25.560Z,7.48
2022-10-19T05:13:52.022Z,7.54
2022-10-19T05:16:23.246Z,7.61
2022-10-19T05:18:51.535Z,7.64
2022-10-19T05:21:18.860Z,7.63
2022-10-19T05:23:45.654Z,7.67
2022-10-19T05:26:17.795Z,7.72
2022-10-19T05:29:04.863Z,7.69
2022-10-19T05:31:33.283Z,7.72
2022-10-19T05:34:00.807Z,7.77
2022-10-19T05:36:32.261Z,7.79
2022-10-19T05:39:01.655Z,7.87
2022-10-19T05:41:28.347Z,7.94
2022-10-19T05:43:59.703Z,7.99
2022-10-19T05:46:28.570Z,8.02
2022-10-19T05:48:56.879Z,8.04
2022-10-19T05:51:24.428Z,8.11
2022-10-19T05:53:52.993Z,8.14
2022-10-19T05:56:22.327Z,8.07
2022-10-19T05:58:49.493Z,8.06
2022-10-19T06:01:19.103Z,8.07
2022-10-19T06:03:47.170Z,8.12
2022-10-19T06:06:13.763Z,8.19
2022-10-19T06:08:40.368Z,8.27
2022-10-19T06:11:10.529Z,8.35
2022-10-19T06:13:38.108Z,8.36
2022-10-19T06:16:06.130Z,8.41
2022-10-19T06:18:33.481Z,8.43
2022-10-19T06:21:08.172Z,8.46
2022-10-19T06:23:35.675Z,8.48
2022-10-19T06:26:04.873Z,8.53
2022-10-19T06:28:31.401Z,8.55
2022-10-19T06:30:59.277Z,8.61
2022-10-19T06:33:27.141Z,8.62
2022-10-19T06:35:53.697Z,8.66
2022-10-19T06:38:20.164Z,8.68
2022-10-19T06:40:58.777Z,8.70
2022-10-19T06:43:25.317Z,8.73
2022-10-19T06:46:03.485Z,8.76
2022-10-19T06:48:29.864Z,8.79
2022-10-19T06:51:22.973Z,8.82
2022-10-19T06:53:52.933Z,8.86
2022-10-19T06:56:24.611Z,8.88
2022-10-19T06:58:51.259Z,8.95
2022-10-19T07:01:17.828Z,8.95
2022-10-19T07:03:44.740Z,8.95
2022-10-19T07:06:14.261Z,8.92
2022-10-19T07:08:42.284Z,8.97
2022-10-19T07:11:14.712Z,9.02
2022-10-19T07:13:41.204Z,9.04
2022-10-19T07:16:17.611Z,9.03
2022-10-19T07:18:49.847Z,9.07
2022-10-19T07:21:17.069Z,9.10
2022-10-19T07:23:47.041Z,9.14
2022-10-19T07:26:23.647Z,9.17
2022-10-19T07:28:51.035Z,9.22
2022-10-19T07:31:20.253Z,9.34
2022-10-19T07:33:47.948Z,9.40
2022-10-19T07:36:14.466Z,9.45
2022-10-19T07:38:41.119Z,9.48
2022-10-19T07:41:12.898Z,9.51
2022-10-19T07:43:40.514Z,9.58
2022-10-19T07:46:10.808Z,9.63
2022-10-19T07:48:37.339Z,9.67
2022-10-19T07:51:06.710Z,9.73
2022-10-19T07:53:34.201Z,9.77
2022-10-19T07:56:09.073Z,9.84
2022-10-19T07:58:36.583Z,9.94
2022-10-19T08:01:08.590Z,9.99
2022-10-19T08:06:22.239Z,10.09
2022-10-19T08:08:49.274Z,10.19
2022-10-19T08:11:28.375Z,10.20
2022-10-19T08:13:55.731Z,10.34
2022-10-19T08:16:44.163Z,10.45
2022-10-19T08:19:13.642Z,10.59
2022-10-19T08:21:45.867Z,10.69
2022-10-19T08:24:14.620Z,10.77
2022-10-19T08:26:41.671Z,10.84
2022-10-19T08:29:12.186Z,10.82
2022-10-19T08:31:39.637Z,10.92
2022-10-19T08:34:06.296Z,11.03
2022-10-19T08:36:35.479Z,11.10
2022-10-19T08:39:04.850Z,11.24
2022-10-19T08:41:40.250Z,11.37
2022-10-19T08:44:24.852Z,11.58
2022-10-19T08:47:01.466Z,11.82
2022-10-19T08:49:31.683Z,11.99
2022-10-19T08:52:01.451Z,12.01
2022-10-19T08:54:38.031Z,12.08
2022-10-19T08:57:24.267Z,12.18
2022-10-19T09:00:12.555Z,12.32
2022-10-19T09:02:51.257Z,12.41
2022-10-19T09:05:44.027Z,12.50
2022-10-19T09:08:16.712Z,12.55
2022-10-19T09:10:47.641Z,12.68
2022-10-19T09:13:22.970Z,12.74
2022-10-19T09:15:50.792Z,12.85
2022-10-19T09:18:23.884Z,12.95
2022-10-19T09:20:57.771Z,13.04
2022-10-19T09:23:55.360Z,13.20
2022-10-19T09:26:27.640Z,13.26
2022-10-19T09:29:12.300Z,13.46
2022-10-19T09:31:40.776Z,13.63
2022-10-19T09:34:33.123Z,13.71
2022-10-19T09:37:00.486Z,13.85
2022-10-19T09:39:29.899Z,13.96
2022-10-19T09:41:56.315Z,14.07
2022-10-19T09:44:24.030Z,14.25
2022-10-19T09:46:57.780Z,14.43
2022-10-19T09:49:48.119Z,14.55
2022-10-19T09:52:37.951Z,14.63
2022-10-19T09:55:13.607Z,14.87
2022-10-19T09:57:48.033Z,14.97
2022-10-19T10:00:19.200Z,15.12
2022-10-19T10:02:53.777Z,15.22
2022-10-19T10:05:22.530Z,15.37
2022-10-19T10:07:55.108Z,15.52
2022-10-19T10:10:30.454Z,15.60
2022-10-19T10:13:00.935Z,15.61
2022-10-19T10:15:35.269Z,15.69
2022-10-19T10:18:02.750Z,15.82
2022-10-19T10:20:32.467Z,15.97
2022-10-19T10:23:02.792Z,15.97
2022-10-19T10:25:36.101Z,16.09
2022-10-19T10:28:16.938Z,16.36
2022-10-19T10:30:45.669Z,16.46
2022-10-19T10:33:33.217Z,16.66
2022-10-19T10:36:09.781Z,16.83
2022-10-19T10:38:40.822Z,16.95
2022-10-19T10:41:20.107Z,17.05
2022-10-19T10:46:28.913Z,17.59
2022-10-19T10:49:02.272Z,17.85
2022-10-19T10:51:38.211Z,18.17
2022-10-19T10:54:26.363Z,18.51
2022-10-19T10:57:13.839Z,18.50
2022-10-19T11:00:12.047Z,18.77
2022-10-19T11:02:54.348Z,19.01
2022-10-19T11:05:31.119Z,19.20
2022-10-19T11:08:12.798Z,19.48
2022-10-19T11:10:54.340Z,19.78
2022-10-19T11:13:26.132Z,19.88
2022-10-19T11:15:58.913Z,19.90
2022-10-19T11:18:27.722Z,19.92
2022-10-19T11:21:09.613Z,20.18
2022-10-19T11:23:55.070Z,20.39
2022-10-19T11:26:33.631Z,20.37
2022-10-19T11:29:27.584Z,20.58
2022-10-19T11:31:55.624Z,20.60
2022-10-19T11:34:31.203Z,20.48
2022-10-19T11:37:22.434Z,20.50
2022-10-19T11:40:22.167Z,20.65
2022-10-19T11:43:10.363Z,20.94
2022-10-19T11:45:45.691Z,20.91
2022-10-19T11:48:23.439Z,21.02
2022-10-19T11:51:20.946Z,21.22
2022-10-19T11:53:57.923Z,21.54
2022-10-19T11:56:51.505Z,21.53
2022-10-19T11:59:46.652Z,21.88
2022-10-19T12:03:01.574Z,21.75
2022-10-19T12:06:09.288Z,21.90
2022-10-19T12:09:08.217Z,22.08
2022-10-19T12:12:10.050Z,21.96
2022-10-19T12:14:40.484Z,21.95
2022-10-19T12:17:15.644Z,22.24
2022-10-19T12:19:47.744Z,22.66
2022-10-19T12:22:19.547Z,22.98
2022-10-19T12:24:46.487Z,23.39
2022-10-19T12:27:16.271Z,23.93
2022-10-19T12:29:46.629Z,24.41
2022-10-19T12:32:17.383Z,24.78
2022-10-19T12:34:56.270Z,25.11
2022-10-19T12:37:34.990Z,25.32
2022-10-19T12:40:27.638Z,25.80
2022-10-19T12:43:13.913Z,26.37
2022-10-19T12:46:00.583Z,27.03
2022-10-19T12:48:27.020Z,27.35
2022-10-19T12:50:53.877Z,27.51
2022-10-19T12:53:31.191Z,27.20
2022-10-19T12:56:06.722Z,27.42
2022-10-19T12:59:01.421Z,28.27
2022-10-19T13:01:44.195Z,28.39
2022-10-19T13:04:19.170Z,28.61
2022-10-19T13:06:51.817Z,28.78
2022-10-19T13:09:26.391Z,28.72
2022-10-19T13:12:14.110Z,29.05
2022-10-19T13:14:54.320Z,29.34
2022-10-19T13:17:49.067Z,29.47
2022-10-19T13:20:15.493Z,30.13
2022-10-19T13:22:44.948Z,30.32
2022-10-19T13:25:27.759Z,30.32
2022-10-19T13:28:01.602Z,30.59
2022-10-19T13:30:38.147Z,30.92
2022-10-19T13:33:28.445Z,30.47
2022-10-19T13:36:00.877Z,30.59
2022-10-19T13:38:33.520Z,30.68
2022-10-19T13:41:18.141Z,30.25
2022-10-19T13:44:00.680Z,30.68
2022-10-19T13:46:30.038Z,30.73
2022-10-19T13:49:27.741Z,30.57
2022-10-19T13:52:27.766Z,29.93
2022-10-19T13:54:54.733Z,29.91
2022-10-19T13:57:48.931Z,29.55
2022-10-19T14:00:19.949Z,29.52
2022-10-19T14:03:06.681Z,29.20
2022-10-19T14:05:47.543Z,29.34
2022-10-19T14:08:33.405Z,29.25
2022-10-19T14:11:11.448Z,28.60
2022-10-19T14:13:38.158Z,28.49
2022-10-19T14:16:04.859Z,27.96
2022-10-19T14:18:36.391Z,27.46
2022-10-19T14:21:08.286Z,26.74
2022-10-19T14:23:42.652Z,25.96
2022-10-19T14:26:20.247Z,24.68
2022-10-19T14:28:53.373Z,24.08
2022-10-19T14:31:25.622Z,23.71
2022-10-19T14:33:56.187Z,23.56
2022-10-19T14:36:27.565Z,23.23
2022-10-19T14:38:55.680Z,23.07
2022-10-19T14:41:28.127Z,22.49
2022-10-19T14:43:59.092Z,22.27
2022-10-19T14:46:29.271Z,21.97
2022-10-19T14:49:10.273Z,21.68
2022-10-19T14:51:50.735Z,21.48
2022-10-19T14:54:30.416Z,21.30
2022-10-19T14:57:06.487Z,21.13
2022-10-19T14:59:47.263Z,20.95
2022-10-19T15:02:16.388Z,20.98
2022-10-19T15:04:42.975Z,20.78
2022-10-19T15:07:39.539Z,20.53
2022-10-19T15:10:22.998Z,20.28
2022-10-19T15:12:51.514Z,20.04
2022-10-19T15:15:24.616Z,19.80
2022-10-19T15:17:55.695Z,19.55
2022-10-19T15:20:54.956Z,19.10
2022-10-19T15:23:41.755Z,18.94
2022-10-19T15:26:17.519Z,18.67
2022-10-19T15:28:44.926Z,18.59
2022-10-19T15:31:23.695Z,18.46
2022-10-19T15:33:53.070Z,18.32
2022-10-19T15:36:21.578Z,18.17
2022-10-19T15:39:17.786Z,18.06
2022-10-19T15:41:51.459Z,17.94
2022-10-19T15:44:41.958Z,17.85
2022-10-19T15:47:14.464Z,17.77
2022-10-19T15:49:40.846Z,17.64
2022-10-19T15:52:27.913Z,17.52
2022-10-19T15:54:56.835Z,17.45
2022-10-19T15:57:32.344Z,17.36
2022-10-19T16:00:02.555Z,17.29
2022-10-19T16:02:29.064Z,17.20
2022-10-19T16:04:55.597Z,17.08
2022-10-19T16:07:31.746Z,16.93
2022-10-19T16:09:59.065Z,16.86
2022-10-19T16:12:26.703Z,16.77
2022-10-19T16:14:54.280Z,16.60
2022-10-19T16:17:20.722Z,16.56
2022-10-19T16:19:47.407Z,16.42
2022-10-19T16:22:14.848Z,16.23
2022-10-19T16:24:41.895Z,16.07
2022-10-19T16:27:09.272Z,16.02
2022-10-19T16:29:35.736Z,15.91
2022-10-19T16:32:02.224Z,15.86
2022-10-19T16:34:28.743Z,15.83
2022-10-19T16:36:55.274Z,15.73
2022-10-19T16:39:21.910Z,15.68
2022-10-19T16:41:48.524Z,15.58
2022-10-19T16:44:15.852Z,15.50
2022-10-19T16:46:42.395Z,15.44
2022-10-19T16:49:08.915Z,15.35
2022-10-19T16:51:42.315Z,15.30
2022-10-19T16:54:11.408Z,15.23
2022-10-19T16:56:44.714Z,15.15
2022-10-19T16:59:14.735Z,15.08
2022-10-19T17:01:44.117Z,15.00
2022-10-19T17:04:11.582Z,14.92
2022-10-19T17:06:38.472Z,14.86
2022-10-19T17:11:52.395Z,14.77
2022-10-19T17:14:19.207Z,14.66
2022-10-19T17:16:45.856Z,14.67
2022-10-19T17:19:12.514Z,14.60
2022-10-19T17:21:39.390Z,14.60
2022-10-19T17:24:08.229Z,14.57
2022-10-19T17:26:39.868Z,14.49
2022-10-19T17:29:07.418Z,14.46
2022-10-19T17:31:34.486Z,14.46
2022-10-19T17:34:01.919Z,14.42
2022-10-19T17:36:31.291Z,14.39
2022-10-19T17:39:00.800Z,14.35
2022-10-19T17:41:28.558Z,14.29
2022-10-19T17:43:56.860Z,14.27
2022-10-19T17:46:26.332Z,14.20
2022-10-19T17:48:53.361Z,14.17
2022-10-19T17:51:29.310Z,14.13
2022-10-19T17:53:58.118Z,14.11
2022-10-19T17:56:25.257Z,14.11
2022-10-19T17:58:52.161Z,14.08
2022-10-19T18:01:20.866Z,14.01
2022-10-19T18:03:47.633Z,13.96
2022-10-19T18:06:18.322Z,13.96
2022-10-19T18:08:47.848Z,13.90
2022-10-19T18:11:19.929Z,13.88
2022-10-19T18:13:47.356Z,13.86
2022-10-19T18:16:27.390Z,13.83
2022-10-19T18:18:56.342Z,13.77
2022-10-19T18:21:26.312Z,13.77
2022-10-19T18:23:55.210Z,13.72
2022-10-19T18:26:24.377Z,13.69
2022-10-19T18:28:52.884Z,13.65
2022-10-19T18:31:22.394Z,13.64
2022-10-19T18:33:55.165Z,13.59
2022-10-19T18:36:21.849Z,13.56
2022-10-19T18:38:52.664Z,13.54
2022-10-19T18:41:19.592Z,13.49
2022-10-19T18:43:52.286Z,13.48
2022-10-19T18:46:20.945Z,13.46
2022-10-19T18:48:47.740Z,13.42
2022-10-19T18:51:15.538Z,13.37
2022-10-19T18:53:42.977Z,13.34
2022-10-19T18:56:11.781Z,13.25
2022-10-19T18:58:38.643Z,13.23
2022-10-19T19:01:16.453Z,13.18
2022-10-19T19:03:45.907Z,13.15
2022-10-19T19:06:15.456Z,13.09
2022-10-19T19:08:42.048Z,13.06
2022-10-19T19:11:31.809Z,13.00
2022-10-19T19:14:13.958Z,13.02
2022-10-19T19:16:42.059Z,12.99
2022-10-19T19:19:10.528Z,13.00
2022-10-19T19:21:38.423Z,12.94
2022-10-19T19:24:06.523Z,12.89
2022-10-19T19:26:38.135Z,12.76
2022-10-19T19:29:05.068Z,12.81
2022-10-19T19:31:31.770Z,12.83
2022-10-19T19:34:02.280Z,12.74
2022-10-19T19:36:29.285Z,12.72
2022-10-19T19:38:56.828Z,12.68
2022-10-19T19:41:23.363Z,12.63
2022-10-19T19:43:49.895Z,12.62
2022-10-19T19:46:19.049Z,12.53
2022-10-19T19:48:47.609Z,12.52
2022-10-19T19:51:19.558Z,12.49
2022-10-19T19:53:47.657Z,12.43
2022-10-19T19:56:16.170Z,12.39
2022-10-19T19:58:44.642Z,12.34
2022-10-19T20:01:21.891Z,12.31
2022-10-19T20:03:48.318Z,12.29
2022-10-19T20:06:18.684Z,12.23
2022-10-19T20:08:47.436Z,12.17
2022-10-19T20:11:17.395Z,12.11
2022-10-19T20:13:45.646Z,12.09
2022-10-19T20:16:18.076Z,12.08
2022-10-19T20:18:45.917Z,12.06
2022-10-19T20:21:23.291Z,12.06
2022-10-19T20:23:50.199Z,12.05
2022-10-19T20:26:24.489Z,12.00
2022-10-19T20:28:51.641Z,12.01
2022-10-19T20:31:18.736Z,11.99
2022-10-19T20:33:47.358Z,11.97
2022-10-19T20:36:38.737Z,11.93
2022-10-19T20:39:05.795Z,11.87
2022-10-19T20:41:35.494Z,11.82
2022-10-19T20:44:01.979Z,11.82
2022-10-19T20:46:30.021Z,11.75
2022-10-19T20:48:59.574Z,11.70
2022-10-19T20:51:31.675Z,11.68
2022-10-19T20:54:00.499Z,11.66
2022-10-19T20:56:30.115Z,11.61
2022-10-19T20:59:04.907Z,11.57
2022-10-19T21:01:33.613Z,11.53
2022-10-19T21:04:03.237Z,11.50
2022-10-19T21:06:32.325Z,11.47
2022-10-19T21:08:59.863Z,11.40
2022-10-19T21:11:28.670Z,11.42
2022-10-19T21:14:00.392Z,11.35
2022-10-19T21:16:29.923Z,11.29
2022-10-19T21:18:56.755Z,11.28
2022-10-19T21:21:28.902Z,11.22
2022-10-19T21:23:58.407Z,11.20
2022-10-19T21:26:26.076Z,11.13
2022-10-19T21:28:53.280Z,11.09
2022-10-19T21:31:21.119Z,11.09
2022-10-19T21:33:47.721Z,11.01
2022-10-19T21:36:15.192Z,11.02
2022-10-19T21:38:42.448Z,10.99
2022-10-19T21:41:13.864Z,10.93
2022-10-19T21:43:40.600Z,10.96
2022-10-19T21:46:10.887Z,10.91
2022-10-19T21:48:38.064Z,10.88
2022-10-19T21:51:22.647Z,10.82
2022-10-19T21:53:49.123Z,10.79
2022-10-19T21:56:16.694Z,10.77
2022-10-19T21:58:48.164Z,10.75
2022-10-19T22:01:15.768Z,10.75
2022-10-19T22:03:42.292Z,10.74
2022-10-19T22:06:08.805Z,10.73
2022-10-19T22:08:35.258Z,10.72
2022-10-19T22:11:10.248Z,10.69
2022-10-19T22:13:37.432Z,10.62
2022-10-19T22:16:08.499Z,10.63
2022-10-19T22:18:36.156Z,10.59
2022-10-19T22:21:07.873Z,10.62
2022-10-19T22:23:34.390Z,10.64
2022-10-19T22:26:01.110Z,10.63
2022-10-19T22:28:28.118Z,10.61
2022-10-19T22:30:57.776Z,10.56
2022-10-19T22:33:25.439Z,10.53
2022-10-19T22:36:00.053Z,10.52
2022-10-19T22:38:28.482Z,10.56
2022-10-19T22:40:54.979Z,10.50
2022-10-19T22:43:21.442Z,10.51
2022-10-19T22:45:49.582Z,10.50
2022-10-19T22:48:17.048Z,10.50
2022-10-19T22:50:44.422Z,10.46
2022-10-19T22:53:11.609Z,10.49
2022-10-19T22:55:38.529Z,10.48
2022-10-19T22:58:06.232Z,10.42
2022-10-19T23:00:32.884Z,10.39
2022-10-19T23:02:59.398Z,10.36
2022-10-19T23:05:25.832Z,10.36
2022-10-19T23:07:52.314Z,10.34
2022-10-19T23:10:18.982Z,10.31
2022-10-19T23:12:50.401Z,10.29
2022-10-19T23:15:17.414Z,10.29
2022-10-19T23:17:43.829Z,10.28
2022-10-19T23:20:11.221Z,10.26
2022-10-19T23:22:37.705Z,10.26
2022-10-19T23:25:04.842Z,10.21
2022-10-19T23:27:31.232Z,10.20
2022-10-19T23:29:57.644Z,10.21
2022-10-19T23:32:24.088Z,10.21
2022-10-19T23:34:50.476Z,10.15
2022-10-19T23:37:16.965Z,10.14
2022-10-19T23:39:43.646Z,10.11
2022-10-19T23:42:10.067Z,10.03
2022-10-19T23:44:36.545Z,10.02
2022-10-19T23:47:02.943Z,10.00
2022-10-19T23:49:29.360Z,9.99
2022-10-19T23:51:55.772Z,9.97
2022-10-19T23:54:22.178Z,9.95
2022-10-19T23:56:48.623Z,9.93
2022-10-19T23:59:15.005Z,9.91
